Terminal Aerodrome Forecast
Issued by NWS

Home | Current Version | Previous Version | Graphics & Text | Print | Product List | Glossary On
Versions: 1 2 3 4 5 6 7 8 9 10 11 12 13 14 15 16 17 18 19 20 21 22
512
FTUS43 KMPX 171131
TAFRWF
TAF
KRWF 171131Z 1712/1812 30020G30KT 6SM -RA BR BKN012
     FM171400 31016G25KT 6SM BR VCSH OVC008
     FM171800 31017G26KT P6SM OVC015
     FM172100 31015G23KT P6SM SCT030
     FM180000 30010KT P6SM SKC
     FM180900 24005KT P6SM SCT120=

USA.gov is the U.S. government's official web portal to all federal, state and local government web resources and services.